createdAt,value
2017-07-30T00:02:06.911Z,2.90
2017-07-30T00:04:33.374Z,3.00
2017-07-30T00:06:59.850Z,3.10
2017-07-30T00:09:26.346Z,3.13
2017-07-30T00:11:52.846Z,3.50
2017-07-30T00:14:20.321Z,3.00
2017-07-30T00:16:46.929Z,2.90
2017-07-30T00:19:13.529Z,2.53
2017-07-30T00:21:40.045Z,3.30
2017-07-30T00:24:06.544Z,2.93
2017-07-30T00:26:33.057Z,2.67
2017-07-30T00:28:59.509Z,3.93
2017-07-30T00:31:26.017Z,3.33
2017-07-30T00:33:52.496Z,2.90
2017-07-30T00:36:18.985Z,3.27
2017-07-30T00:38:45.504Z,3.50
2017-07-30T00:41:11.970Z,3.70
2017-07-30T00:43:38.440Z,2.97
2017-07-30T00:46:04.931Z,3.93
2017-07-30T00:48:31.409Z,3.00
2017-07-30T00:50:57.868Z,3.20
2017-07-30T00:53:24.342Z,3.13
2017-07-30T00:55:50.804Z,3.80
2017-07-30T00:58:17.327Z,3.37
2017-07-30T01:00:43.789Z,2.93
2017-07-30T01:03:10.433Z,2.93
2017-07-30T01:05:36.913Z,3.20
2017-07-30T01:08:03.293Z,2.90
2017-07-30T01:10:30.496Z,3.10
2017-07-30T01:12:57.071Z,4.23
2017-07-30T01:15:23.546Z,3.10
2017-07-30T01:17:50.049Z,3.20
2017-07-30T01:20:16.634Z,3.73
2017-07-30T01:22:43.172Z,3.00
2017-07-30T01:25:09.709Z,2.80
2017-07-30T01:27:36.943Z,3.20
2017-07-30T01:30:03.405Z,3.23
2017-07-30T01:32:29.881Z,2.80
2017-07-30T01:34:56.341Z,3.00
2017-07-30T01:37:22.909Z,2.63
2017-07-30T01:39:49.400Z,3.10
2017-07-30T01:42:15.901Z,2.70
2017-07-30T01:44:42.416Z,3.37
2017-07-30T01:47:08.954Z,2.77
2017-07-30T01:49:35.438Z,2.47
2017-07-30T01:52:02.702Z,2.60
2017-07-30T01:54:29.190Z,3.33
2017-07-30T01:56:55.695Z,3.03
2017-07-30T01:59:23.342Z,3.20
2017-07-30T02:04:22.858Z,3.13
2017-07-30T02:06:49.100Z,2.77
2017-07-30T02:09:15.374Z,2.90
2017-07-30T02:11:41.635Z,2.93
2017-07-30T02:14:07.931Z,3.00
2017-07-30T02:16:34.233Z,2.83
2017-07-30T02:19:00.515Z,2.80
2017-07-30T02:21:26.802Z,3.17
2017-07-30T02:23:53.078Z,2.83
2017-07-30T02:26:19.368Z,3.53
2017-07-30T02:28:45.625Z,3.60
2017-07-30T02:31:11.919Z,3.53
2017-07-30T02:33:38.955Z,2.93
2017-07-30T02:36:05.958Z,2.87
2017-07-30T02:38:32.250Z,3.10
2017-07-30T02:40:58.523Z,3.30
2017-07-30T02:43:25.761Z,2.83
2017-07-30T02:45:52.739Z,2.97
2017-07-30T02:48:19.004Z,2.83
2017-07-30T02:50:45.278Z,3.20
2017-07-30T02:53:12.563Z,2.80
2017-07-30T02:55:38.842Z,2.83
2017-07-30T02:58:05.110Z,3.00
2017-07-30T03:00:31.392Z,3.20
2017-07-30T03:02:57.666Z,3.23
2017-07-30T03:05:24.154Z,3.17
2017-07-30T03:07:50.678Z,2.90
2017-07-30T03:10:17.155Z,3.07
2017-07-30T03:12:43.639Z,2.93
2017-07-30T03:15:10.153Z,3.10
2017-07-30T03:17:36.622Z,3.47
2017-07-30T03:20:03.065Z,2.97
2017-07-30T03:22:29.521Z,3.03
2017-07-30T03:24:56.001Z,3.47
2017-07-30T03:27:22.517Z,3.33
2017-07-30T03:29:49.038Z,3.07
2017-07-30T03:32:15.539Z,3.47
2017-07-30T03:34:42.069Z,3.37
2017-07-30T03:37:08.573Z,3.30
2017-07-30T03:39:35.821Z,3.87
2017-07-30T03:42:02.349Z,3.00
2017-07-30T03:44:29.054Z,3.10
2017-07-30T03:46:55.535Z,3.40
2017-07-30T03:49:22.056Z,3.20
2017-07-30T03:51:48.660Z,3.13
2017-07-30T03:54:15.218Z,3.27
2017-07-30T03:56:42.438Z,3.30
2017-07-30T03:59:08.977Z,2.97
2017-07-30T04:01:35.489Z,3.03
2017-07-30T04:04:02.006Z,3.87
2017-07-30T04:06:28.518Z,3.47
2017-07-30T04:08:55.048Z,3.50
2017-07-30T04:11:21.526Z,3.70
2017-07-30T04:13:48.075Z,3.57
2017-07-30T04:16:14.579Z,3.27
2017-07-30T04:18:41.086Z,3.67
2017-07-30T04:21:07.610Z,2.90
2017-07-30T04:23:34.134Z,3.37
2017-07-30T04:26:00.642Z,3.83
2017-07-30T04:28:27.123Z,3.53
2017-07-30T04:30:54.370Z,3.70
2017-07-30T04:33:22.266Z,3.13
2017-07-30T04:35:48.808Z,3.30
2017-07-30T04:38:16.033Z,3.20
2017-07-30T04:40:42.562Z,3.10
2017-07-30T04:43:09.065Z,3.30
2017-07-30T04:45:35.577Z,3.60
2017-07-30T04:48:02.079Z,3.63
2017-07-30T04:50:28.572Z,2.93
2017-07-30T04:52:55.089Z,3.70
2017-07-30T04:55:21.562Z,3.53
2017-07-30T04:57:48.163Z,3.63
2017-07-30T05:00:14.657Z,3.63
2017-07-30T05:02:41.161Z,3.87
2017-07-30T05:05:07.649Z,3.23
2017-07-30T05:07:35.125Z,2.90
2017-07-30T05:10:01.612Z,3.10
2017-07-30T05:12:28.857Z,3.43
2017-07-30T05:14:55.368Z,3.60
2017-07-30T05:17:21.913Z,3.10
2017-07-30T05:19:48.661Z,3.30
2017-07-30T05:22:16.940Z,3.20
2017-07-30T05:24:43.489Z,3.33
2017-07-30T05:27:10.721Z,3.00
2017-07-30T05:29:37.181Z,3.60
2017-07-30T05:32:03.657Z,3.13
2017-07-30T05:34:30.157Z,3.00
2017-07-30T05:36:56.618Z,3.13
2017-07-30T05:39:23.914Z,2.87
2017-07-30T05:41:51.049Z,3.40
2017-07-30T05:44:17.560Z,2.80
2017-07-30T05:46:44.511Z,2.90
2017-07-30T05:49:10.978Z,4.20
2017-07-30T05:51:37.486Z,3.20
2017-07-30T05:54:03.993Z,3.07
2017-07-30T05:56:30.506Z,3.40
2017-07-30T05:58:57.735Z,2.97
2017-07-30T06:01:24.666Z,3.70
2017-07-30T06:03:51.173Z,3.73
2017-07-30T06:06:17.675Z,3.13
2017-07-30T06:08:44.109Z,3.23
2017-07-30T06:11:10.605Z,3.50
2017-07-30T06:13:37.078Z,3.40
2017-07-30T06:16:03.569Z,3.10
2017-07-30T06:18:30.090Z,3.13
2017-07-30T06:20:56.566Z,3.27
2017-07-30T06:23:23.033Z,3.13
2017-07-30T06:25:49.546Z,3.30
2017-07-30T06:28:16.079Z,3.30
2017-07-30T06:30:42.544Z,3.20
2017-07-30T06:33:09.021Z,2.77
2017-07-30T06:35:35.496Z,2.90
2017-07-30T06:38:02.022Z,3.60
2017-07-30T06:40:28.937Z,3.13
2017-07-30T06:42:55.421Z,2.60
2017-07-30T06:45:21.922Z,2.63
2017-07-30T06:47:48.453Z,3.40
2017-07-30T06:50:15.709Z,2.83
2017-07-30T06:52:42.197Z,2.83
2017-07-30T06:55:09.449Z,2.83
2017-07-30T06:57:35.885Z,2.63
2017-07-30T07:00:02.403Z,2.93
2017-07-30T07:02:29.437Z,2.70
2017-07-30T07:04:55.968Z,2.83
2017-07-30T07:07:22.454Z,2.60
2017-07-30T07:09:50.151Z,2.57
2017-07-30T07:12:16.671Z,3.00
2017-07-30T07:14:43.198Z,2.70
2017-07-30T07:17:09.664Z,2.63
2017-07-30T07:19:36.232Z,2.13
2017-07-30T07:22:02.763Z,2.70
2017-07-30T07:24:29.258Z,2.43
2017-07-30T07:26:55.769Z,2.60
2017-07-30T07:29:22.256Z,2.47
2017-07-30T07:31:49.530Z,2.50
2017-07-30T07:34:16.014Z,2.40
2017-07-30T07:36:43.247Z,2.23
2017-07-30T07:39:09.753Z,2.50
2017-07-30T07:41:36.250Z,2.60
2017-07-30T07:44:02.780Z,2.80
2017-07-30T07:46:29.421Z,2.50
2017-07-30T07:48:55.934Z,2.33
2017-07-30T07:51:23.278Z,2.70
2017-07-30T07:53:49.798Z,2.40
2017-07-30T07:56:17.305Z,2.50
2017-07-30T07:58:43.852Z,2.20
2017-07-30T08:01:10.359Z,2.20
2017-07-30T08:03:36.892Z,1.90
2017-07-30T08:06:03.513Z,2.57
2017-07-30T08:08:30.130Z,2.70
2017-07-30T08:10:57.040Z,2.23
2017-07-30T08:13:23.572Z,2.40
2017-07-30T08:15:50.093Z,2.20
2017-07-30T08:18:16.652Z,2.40
2017-07-30T08:20:43.169Z,2.17
2017-07-30T08:23:10.376Z,2.67
2017-07-30T08:25:37.635Z,2.10
2017-07-30T08:28:04.538Z,1.97
2017-07-30T08:30:31.049Z,1.80
2017-07-30T08:32:57.579Z,1.93
2017-07-30T08:35:24.122Z,1.53
2017-07-30T08:37:51.353Z,1.67
2017-07-30T08:40:17.833Z,1.50
2017-07-30T08:42:44.283Z,1.70
2017-07-30T08:45:10.777Z,2.20
2017-07-30T08:47:37.380Z,1.90
2017-07-30T08:50:03.933Z,1.90
2017-07-30T08:52:30.470Z,1.67
2017-07-30T08:54:56.973Z,1.93
2017-07-30T08:57:23.485Z,2.33
2017-07-30T08:59:49.976Z,1.77
2017-07-30T09:02:16.516Z,1.77
2017-07-30T09:04:43.038Z,1.97
2017-07-30T09:07:09.547Z,1.90
2017-07-30T09:09:36.043Z,1.70
2017-07-30T09:12:03.172Z,2.00
2017-07-30T09:14:29.674Z,2.83
2017-07-30T09:16:56.173Z,2.50
2017-07-30T09:19:23.448Z,1.93
2017-07-30T09:21:49.975Z,2.20
2017-07-30T09:24:16.474Z,2.03
2017-07-30T09:26:42.996Z,1.70
2017-07-30T09:29:09.574Z,1.87
2017-07-30T09:31:36.062Z,1.73
2017-07-30T09:34:02.600Z,1.90
2017-07-30T09:36:29.078Z,2.10
2017-07-30T09:38:55.637Z,2.13
2017-07-30T09:41:22.208Z,1.90
2017-07-30T09:43:49.443Z,2.10
2017-07-30T09:46:16.016Z,1.90
2017-07-30T09:48:42.545Z,1.83
2017-07-30T09:51:09.018Z,2.20
2017-07-30T09:53:35.610Z,1.73
2017-07-30T09:56:02.093Z,2.20
2017-07-30T09:58:28.639Z,2.43
2017-07-30T10:00:55.134Z,2.00
2017-07-30T10:03:21.775Z,1.80
2017-07-30T10:05:49.081Z,2.00
2017-07-30T10:08:15.561Z,2.00
2017-07-30T10:10:42.318Z,2.17
2017-07-30T10:13:08.986Z,2.13
2017-07-30T10:15:35.854Z,2.10
2017-07-30T10:18:02.377Z,1.90
2017-07-30T10:20:29.425Z,2.23
2017-07-30T10:22:56.673Z,2.00
2017-07-30T10:25:23.210Z,2.23
2017-07-30T10:27:49.689Z,2.07
2017-07-30T10:30:16.230Z,2.10
2017-07-30T10:32:42.719Z,2.63
2017-07-30T10:35:09.202Z,2.40
2017-07-30T10:37:35.693Z,2.50
2017-07-30T10:40:02.198Z,2.37
2017-07-30T10:42:29.167Z,2.20
2017-07-30T10:44:55.670Z,2.53
2017-07-30T10:47:22.185Z,2.53
2017-07-30T10:49:48.716Z,2.37
2017-07-30T10:52:15.231Z,2.43
2017-07-30T10:54:41.706Z,2.60
2017-07-30T10:57:33.432Z,2.33
2017-07-30T11:00:09.804Z,2.63
2017-07-30T11:02:40.501Z,2.70
2017-07-30T11:05:07.068Z,2.83
2017-07-30T11:07:34.438Z,2.67
2017-07-30T11:10:00.993Z,2.50
2017-07-30T11:12:27.473Z,2.77
2017-07-30T11:14:54.525Z,3.00
2017-07-30T11:17:20.891Z,2.80
2017-07-30T11:19:47.136Z,2.87
2017-07-30T11:22:14.234Z,3.00
2017-07-30T11:24:41.307Z,3.00
2017-07-30T11:27:08.314Z,2.90
2017-07-30T11:29:34.677Z,3.00
2017-07-30T11:32:00.927Z,2.70
2017-07-30T11:34:27.184Z,3.40
2017-07-30T11:36:53.552Z,2.43
2017-07-30T11:39:19.844Z,3.10
2017-07-30T11:41:46.201Z,2.67
2017-07-30T11:44:13.238Z,2.43
2017-07-30T11:46:39.527Z,3.07
2017-07-30T11:49:05.789Z,2.70
2017-07-30T11:51:32.140Z,2.27
2017-07-30T11:53:58.474Z,2.30
2017-07-30T11:56:24.784Z,2.00
2017-07-30T11:58:51.046Z,2.07
2017-07-30T12:01:17.367Z,1.90
2017-07-30T12:03:43.786Z,1.90
2017-07-30T12:06:10.203Z,1.60
2017-07-30T12:08:36.506Z,2.10
2017-07-30T12:11:03.038Z,1.70
2017-07-30T12:13:29.688Z,1.70
2017-07-30T12:15:56.157Z,1.60
2017-07-30T12:18:22.682Z,2.03
2017-07-30T12:20:49.327Z,1.60
2017-07-30T12:23:15.895Z,2.20
2017-07-30T12:25:42.410Z,1.90
2017-07-30T12:28:08.904Z,1.50
2017-07-30T12:30:35.434Z,2.20
2017-07-30T12:33:02.051Z,2.00
2017-07-30T12:35:35.657Z,1.70
2017-07-30T12:38:02.079Z,1.40
2017-07-30T12:40:29.386Z,1.70
2017-07-30T12:42:55.937Z,1.50
2017-07-30T12:45:22.453Z,1.50
2017-07-30T12:47:49.721Z,1.93
2017-07-30T12:50:16.319Z,2.00
2017-07-30T12:52:43.596Z,1.53
2017-07-30T12:55:10.074Z,1.47
2017-07-30T12:57:36.582Z,1.50
2017-07-30T13:00:03.885Z,1.60
2017-07-30T13:02:33.285Z,1.40
2017-07-30T13:04:59.852Z,1.50
2017-07-30T13:07:26.431Z,1.50
2017-07-30T13:09:53.061Z,1.40
2017-07-30T13:12:19.610Z,1.53
2017-07-30T13:14:46.833Z,1.30
2017-07-30T13:17:13.364Z,1.50
2017-07-30T13:19:39.899Z,1.90
2017-07-30T13:22:06.505Z,1.30
2017-07-30T13:24:33.028Z,1.50
2017-07-30T13:26:59.561Z,1.60
2017-07-30T13:29:26.113Z,1.73
2017-07-30T13:31:52.649Z,1.57
2017-07-30T13:34:19.147Z,1.43
2017-07-30T13:36:45.635Z,1.30
2017-07-30T13:39:12.149Z,1.70
2017-07-30T13:41:38.737Z,1.70
2017-07-30T13:44:05.288Z,2.23
2017-07-30T13:46:31.763Z,1.80
2017-07-30T13:48:58.245Z,1.40
2017-07-30T13:51:24.804Z,1.53
2017-07-30T13:53:55.821Z,1.50
2017-07-30T13:56:22.274Z,1.67
2017-07-30T13:58:48.891Z,1.90
2017-07-30T14:01:15.427Z,1.70
2017-07-30T14:03:42.663Z,1.93
2017-07-30T14:06:09.893Z,1.40
2017-07-30T14:08:36.384Z,1.70
2017-07-30T14:11:02.898Z,1.57
2017-07-30T14:13:29.346Z,1.83
2017-07-30T14:15:55.854Z,1.57
2017-07-30T14:18:22.329Z,1.70
2017-07-30T14:20:48.849Z,1.60
2017-07-30T14:23:15.318Z,1.73
2017-07-30T14:25:46.745Z,1.87
2017-07-30T14:28:13.250Z,1.63
2017-07-30T14:30:39.750Z,1.97
2017-07-30T14:33:06.250Z,1.80
2017-07-30T14:35:33.446Z,2.23
2017-07-30T14:37:59.938Z,1.80
2017-07-30T14:40:26.616Z,2.00
2017-07-30T14:42:53.122Z,1.70
2017-07-30T14:45:20.401Z,1.63
2017-07-30T14:47:46.873Z,1.60
2017-07-30T14:50:14.121Z,1.20
2017-07-30T14:52:41.378Z,1.83
2017-07-30T14:55:07.899Z,1.63
2017-07-30T14:57:34.479Z,1.63
2017-07-30T15:00:01.003Z,1.63
2017-07-30T15:02:27.511Z,1.50
2017-07-30T15:04:53.990Z,1.63
2017-07-30T15:07:20.531Z,1.77
2017-07-30T15:09:46.786Z,2.10
2017-07-30T15:12:17.915Z,2.03
2017-07-30T15:14:44.393Z,1.50
2017-07-30T15:17:10.662Z,2.00
2017-07-30T15:19:37.659Z,1.70
2017-07-30T15:22:03.975Z,1.70
2017-07-30T15:24:30.264Z,1.90
2017-07-30T15:26:56.552Z,2.27
2017-07-30T15:29:22.956Z,1.73
2017-07-30T15:31:49.532Z,2.60
2017-07-30T15:34:15.831Z,1.70
2017-07-30T15:36:42.124Z,1.73
2017-07-30T15:39:08.424Z,1.90
2017-07-30T15:41:34.724Z,2.27
2017-07-30T15:44:01.057Z,2.10
2017-07-30T15:46:27.419Z,1.83
2017-07-30T15:48:54.056Z,1.70
2017-07-30T15:51:21.478Z,2.30
2017-07-30T15:53:47.910Z,1.60
2017-07-30T15:56:15.779Z,2.40
2017-07-30T15:58:42.086Z,2.17
2017-07-30T16:01:13.458Z,2.23
2017-07-30T16:03:39.747Z,1.97
2017-07-30T16:06:06.045Z,2.13
2017-07-30T16:08:32.324Z,1.80
2017-07-30T16:10:58.614Z,1.80
2017-07-30T16:13:24.919Z,1.50
2017-07-30T16:18:22.834Z,1.67
2017-07-30T16:20:49.168Z,2.30
2017-07-30T16:23:16.189Z,1.77
2017-07-30T16:25:42.476Z,1.40
2017-07-30T16:28:08.777Z,1.50
2017-07-30T16:30:39.894Z,1.77
2017-07-30T16:33:06.210Z,1.70
2017-07-30T16:35:32.542Z,1.87
2017-07-30T16:37:58.853Z,1.40
2017-07-30T16:40:25.142Z,1.53
2017-07-30T16:42:52.725Z,1.30
2017-07-30T16:45:19.029Z,1.40
2017-07-30T16:47:49.558Z,1.50
2017-07-30T16:50:15.823Z,2.97
2017-07-30T16:52:46.251Z,2.17
2017-07-30T16:55:12.545Z,1.50
2017-07-30T16:57:38.829Z,1.50
2017-07-30T17:00:05.135Z,2.73
2017-07-30T17:02:31.423Z,1.13
2017-07-30T17:04:57.783Z,1.40
2017-07-30T17:07:24.115Z,1.63
2017-07-30T17:09:52.706Z,1.10
2017-07-30T17:12:19.285Z,1.40
2017-07-30T17:14:48.608Z,1.67
2017-07-30T17:17:15.013Z,1.13
2017-07-30T17:19:41.363Z,1.10
2017-07-30T17:22:07.887Z,1.83
2017-07-30T17:24:39.755Z,2.03
2017-07-30T17:27:06.983Z,1.67
2017-07-30T17:29:33.488Z,1.43
2017-07-30T17:32:00.051Z,1.37
2017-07-30T17:34:26.586Z,1.43
2017-07-30T17:36:53.170Z,1.70
2017-07-30T17:39:19.799Z,2.23
2017-07-30T17:41:46.309Z,1.30
2017-07-30T17:44:12.833Z,2.07
2017-07-30T17:46:39.501Z,1.40
2017-07-30T17:49:06.017Z,1.40
2017-07-30T17:51:32.521Z,1.03
2017-07-30T17:53:59.025Z,1.10
2017-07-30T17:56:25.515Z,0.97
2017-07-30T17:58:52.002Z,1.00
2017-07-30T18:01:18.548Z,0.80
2017-07-30T18:03:44.967Z,1.10
2017-07-30T18:06:11.554Z,1.10
2017-07-30T18:08:38.067Z,1.30
2017-07-30T18:11:04.698Z,1.07
2017-07-30T18:13:31.223Z,1.30
2017-07-30T18:15:57.709Z,1.33
2017-07-30T18:18:24.284Z,1.30
2017-07-30T18:20:58.036Z,0.90
2017-07-30T18:23:25.599Z,1.03
2017-07-30T18:25:52.200Z,0.80
2017-07-30T18:28:18.761Z,1.20
2017-07-30T18:30:45.191Z,1.17
2017-07-30T18:33:11.735Z,1.40
2017-07-30T18:35:38.230Z,1.20
2017-07-30T18:38:04.763Z,1.23
2017-07-30T18:40:31.378Z,1.37
2017-07-30T18:42:57.957Z,1.40
2017-07-30T18:45:24.499Z,1.43
2017-07-30T18:47:51.374Z,1.07
2017-07-30T18:50:17.884Z,1.50
2017-07-30T18:52:44.431Z,1.20
2017-07-30T18:55:11.453Z,1.50
2017-07-30T18:57:37.994Z,1.53
2017-07-30T19:00:04.523Z,1.50
2017-07-30T19:02:31.086Z,1.17
2017-07-30T19:04:58.436Z,1.37
2017-07-30T19:07:24.997Z,1.50
2017-07-30T19:09:51.841Z,1.57
2017-07-30T19:12:18.345Z,1.60
2017-07-30T19:14:44.924Z,1.23
2017-07-30T19:17:11.633Z,1.70
2017-07-30T19:19:38.218Z,1.60
2017-07-30T19:22:04.734Z,1.63
2017-07-30T19:24:31.378Z,1.30
2017-07-30T19:26:58.039Z,1.50
2017-07-30T19:29:24.690Z,1.60
2017-07-30T19:31:51.133Z,1.67
2017-07-30T19:34:17.788Z,1.70
2017-07-30T19:36:45.656Z,1.60
2017-07-30T19:39:12.915Z,1.70
2017-07-30T19:41:39.516Z,1.40
2017-07-30T19:44:06.198Z,2.00
2017-07-30T19:46:32.883Z,1.70
2017-07-30T19:48:59.713Z,1.53
2017-07-30T19:51:26.309Z,2.03
2017-07-30T19:53:53.642Z,2.07
2017-07-30T19:56:21.307Z,1.87
2017-07-30T19:58:47.967Z,1.60
2017-07-30T20:01:14.651Z,1.80
2017-07-30T20:03:41.070Z,1.73
2017-07-30T20:06:07.573Z,1.87
2017-07-30T20:08:34.257Z,2.03
2017-07-30T20:11:00.991Z,1.60
2017-07-30T20:13:27.612Z,1.80
2017-07-30T20:15:54.432Z,2.07
2017-07-30T20:18:21.105Z,1.90
2017-07-30T20:20:47.798Z,1.87
2017-07-30T20:23:14.293Z,1.63
2017-07-30T20:25:40.870Z,1.83
2017-07-30T20:28:08.047Z,1.93
2017-07-30T20:30:34.638Z,1.90
2017-07-30T20:33:01.302Z,1.63
2017-07-30T20:35:27.955Z,2.00
2017-07-30T20:37:54.619Z,1.90
2017-07-30T20:40:21.281Z,2.10
2017-07-30T20:42:48.008Z,2.17
2017-07-30T20:45:14.514Z,2.47
2017-07-30T20:47:41.255Z,2.87
2017-07-30T20:50:08.840Z,2.40
2017-07-30T20:52:35.409Z,2.13
2017-07-30T20:55:02.629Z,2.30
2017-07-30T20:57:29.468Z,2.10
2017-07-30T20:59:56.192Z,3.40
2017-07-30T21:02:22.709Z,2.50
2017-07-30T21:04:49.778Z,2.50
2017-07-30T21:07:17.377Z,2.17
2017-07-30T21:09:44.049Z,2.30
2017-07-30T21:12:11.310Z,2.37
2017-07-30T21:14:37.866Z,2.80
2017-07-30T21:17:04.789Z,2.50
2017-07-30T21:19:31.410Z,2.57
2017-07-30T21:21:57.970Z,2.70
2017-07-30T21:24:24.573Z,2.77
2017-07-30T21:26:51.285Z,2.80
2017-07-30T21:29:18.636Z,3.00
2017-07-30T21:31:45.526Z,2.97
2017-07-30T21:34:12.191Z,2.53
2017-07-30T21:36:38.897Z,2.93
2017-07-30T21:39:05.381Z,3.10
2017-07-30T21:41:31.935Z,3.37
2017-07-30T21:43:58.734Z,2.63
2017-07-30T21:46:25.559Z,2.43
2017-07-30T21:48:52.092Z,2.70
2017-07-30T21:51:18.650Z,2.50
2017-07-30T21:53:45.178Z,3.37
2017-07-30T21:56:12.430Z,2.63
2017-07-30T21:58:38.968Z,2.80
2017-07-30T22:01:05.563Z,3.00
2017-07-30T22:03:32.942Z,2.90
2017-07-30T22:05:59.906Z,2.70
2017-07-30T22:08:26.463Z,2.67
2017-07-30T22:10:54.008Z,3.30
2017-07-30T22:13:21.554Z,3.10
2017-07-30T22:15:48.867Z,2.97
2017-07-30T22:18:15.915Z,2.10
2017-07-30T22:20:42.489Z,2.60
2017-07-30T22:23:09.010Z,2.90
2017-07-30T22:25:35.533Z,2.60
2017-07-30T22:28:02.089Z,2.27
2017-07-30T22:30:33.097Z,2.37
2017-07-30T22:32:59.766Z,2.67
2017-07-30T22:35:26.336Z,2.53
2017-07-30T22:37:52.901Z,2.70
2017-07-30T22:40:19.515Z,2.97
2017-07-30T22:42:46.217Z,2.60
2017-07-30T22:45:12.820Z,2.20
2017-07-30T22:47:46.043Z,2.63
2017-07-30T22:50:12.653Z,2.90
2017-07-30T22:52:39.304Z,2.67
2017-07-30T22:55:05.841Z,2.80
2017-07-30T22:57:32.501Z,2.70
2017-07-30T22:59:59.029Z,2.80
2017-07-30T23:02:25.498Z,3.43
2017-07-30T23:04:51.991Z,3.20
2017-07-30T23:07:18.534Z,2.40
2017-07-30T23:09:45.068Z,2.93
2017-07-30T23:12:11.593Z,2.40
2017-07-30T23:14:38.116Z,3.00
2017-07-30T23:17:05.297Z,3.10
2017-07-30T23:19:31.832Z,2.90
2017-07-30T23:21:58.261Z,4.03
2017-07-30T23:24:24.702Z,2.97
2017-07-30T23:26:51.126Z,2.73
2017-07-30T23:29:18.358Z,3.07
2017-07-30T23:31:44.839Z,3.33
2017-07-30T23:34:11.312Z,3.53
2017-07-30T23:36:37.789Z,3.10
2017-07-30T23:39:04.329Z,3.00
2017-07-30T23:41:30.865Z,3.70
2017-07-30T23:43:58.134Z,3.17
2017-07-30T23:46:24.793Z,3.10
2017-07-30T23:48:51.265Z,2.73
2017-07-30T23:51:18.499Z,2.80
2017-07-30T23:53:45.010Z,4.13
2017-07-30T23:56:12.305Z,3.10
2017-07-30T23:58:38.826Z,3.43
